createdAt,value
2018-12-01T00:03:00.087Z,7.87
2018-12-01T00:13:00.185Z,7.76
2018-12-01T00:23:00.231Z,7.71
2018-12-01T00:33:00.082Z,7.67
2018-12-01T00:43:00.151Z,7.64
2018-12-01T00:53:00.113Z,7.68
2018-12-01T01:03:00.108Z,7.58
2018-12-01T01:13:00.047Z,7.53
2018-12-01T01:23:01.045Z,7.43
2018-12-01T01:33:00.070Z,7.36
2018-12-01T01:43:00.300Z,7.28
2018-12-01T01:53:00.141Z,7.25
2018-12-01T02:03:00.206Z,7.19
2018-12-01T02:13:00.089Z,7.20
2018-12-01T02:23:00.108Z,7.33
2018-12-01T02:33:00.103Z,7.42
2018-12-01T02:43:00.143Z,7.36
2018-12-01T02:53:00.097Z,7.19
2018-12-01T03:03:00.026Z,7.01
2018-12-01T03:12:59.938Z,6.90
2018-12-01T03:23:00.125Z,6.72
2018-12-01T03:33:00.128Z,6.72
2018-12-01T03:43:00.088Z,6.71
2018-12-01T03:53:00.120Z,6.75
2018-12-01T04:03:00.164Z,6.86
2018-12-01T04:13:00.105Z,6.88
2018-12-01T04:23:00.036Z,6.92
2018-12-01T04:33:01.129Z,6.89
2018-12-01T04:43:00.956Z,6.77
2018-12-01T04:53:00.074Z,6.72
2018-12-01T05:03:00.059Z,6.70
2018-12-01T05:13:00.086Z,6.64
2018-12-01T05:23:00.106Z,6.52
2018-12-01T05:33:00.106Z,6.61
2018-12-01T05:43:00.083Z,6.73
2018-12-01T05:53:00.107Z,6.77
2018-12-01T06:03:00.032Z,6.81
2018-12-01T06:13:00.066Z,6.84
2018-12-01T06:23:00.011Z,6.77
2018-12-01T06:33:00.285Z,6.86
2018-12-01T06:43:00.272Z,6.96
2018-12-01T06:53:00.280Z,7.00
2018-12-01T07:03:00.034Z,7.03
2018-12-01T07:13:00.048Z,7.02
2018-12-01T07:23:00.034Z,7.05
2018-12-01T07:33:00.211Z,6.97
2018-12-01T07:43:00.056Z,6.93
2018-12-01T07:53:00.054Z,7.04
2018-12-01T08:03:00.090Z,7.32
2018-12-01T08:12:59.934Z,7.39
2018-12-01T08:23:00.050Z,7.42
2018-12-01T08:33:00.056Z,7.47
2018-12-01T08:43:00.095Z,7.63
2018-12-01T08:53:00.040Z,7.88
2018-12-01T09:03:00.044Z,7.86
2018-12-01T09:13:01.776Z,7.92
2018-12-01T09:23:00.002Z,7.93
2018-12-01T09:33:00.054Z,8.43
2018-12-01T09:43:00.002Z,9.26
2018-12-01T09:53:00.162Z,9.23
2018-12-01T10:03:00.080Z,8.76
2018-12-01T10:13:00.049Z,8.55
2018-12-01T10:23:00.068Z,8.63
2018-12-01T10:33:00.055Z,8.69
2018-12-01T10:43:00.021Z,8.85
2018-12-01T10:53:00.051Z,9.05
2018-12-01T11:03:00.253Z,9.86
2018-12-01T11:13:00.016Z,10.33
2018-12-01T11:23:00.057Z,9.76
2018-12-01T11:33:00.147Z,9.73
2018-12-01T11:43:00.047Z,9.72
2018-12-01T11:53:00.070Z,9.47
2018-12-01T12:03:00.045Z,9.29
2018-12-01T12:13:00.182Z,9.26
2018-12-01T12:23:00.021Z,9.13
2018-12-01T12:33:00.075Z,9.05
2018-12-01T12:42:59.976Z,9.05
2018-12-01T12:53:00.064Z,8.92
2018-12-01T13:03:00.019Z,8.84
2018-12-01T13:13:00.099Z,8.77
2018-12-01T13:22:59.993Z,8.73
2018-12-01T13:33:00.000Z,8.71
2018-12-01T13:43:00.058Z,8.72
2018-12-01T13:52:59.989Z,8.60
2018-12-01T14:03:00.015Z,8.36
2018-12-01T14:13:00.325Z,8.06
2018-12-01T14:22:59.966Z,7.84
2018-12-01T14:33:00.043Z,7.78
2018-12-01T14:43:00.056Z,7.73
2018-12-01T14:52:59.988Z,7.71
2018-12-01T15:02:59.989Z,7.81
2018-12-01T15:12:59.950Z,7.80
2018-12-01T15:23:00.006Z,7.80
2018-12-01T15:33:00.062Z,7.82
2018-12-01T15:43:00.020Z,7.91
2018-12-01T15:52:59.870Z,7.93
2018-12-01T16:03:00.027Z,8.02
2018-12-01T16:12:59.983Z,8.06
2018-12-01T16:22:59.952Z,7.99
2018-12-01T16:32:59.949Z,8.15
2018-12-01T16:42:59.899Z,8.36
2018-12-01T16:52:59.918Z,8.54
2018-12-01T17:03:00.003Z,8.66
2018-12-01T17:12:59.935Z,8.70
2018-12-01T17:22:59.990Z,8.77
2018-12-01T17:33:00.003Z,8.86
2018-12-01T17:42:59.920Z,8.96
2018-12-01T17:52:59.884Z,9.03
2018-12-01T18:02:59.914Z,9.03
2018-12-01T18:12:59.893Z,9.08
2018-12-01T18:23:00.041Z,9.17
2018-12-01T18:33:00.114Z,9.11
2018-12-01T18:42:59.938Z,9.17
2018-12-01T18:52:59.924Z,9.25
2018-12-01T19:03:00.037Z,9.28
2018-12-01T19:12:59.925Z,9.27
2018-12-01T19:22:59.942Z,9.32
2018-12-01T19:33:00.810Z,9.35
2018-12-01T19:42:59.958Z,9.34
2018-12-01T19:52:59.921Z,9.33
2018-12-01T20:02:59.986Z,9.30
2018-12-01T20:12:59.990Z,9.32
2018-12-01T20:22:59.920Z,9.35
2018-12-01T20:32:59.889Z,9.40
2018-12-01T20:43:00.000Z,9.34
2018-12-01T20:53:00.135Z,9.36
2018-12-01T21:02:59.994Z,9.44
2018-12-01T21:12:59.901Z,9.56
2018-12-01T21:22:59.908Z,9.59
2018-12-01T21:32:59.822Z,9.57
2018-12-01T21:42:59.913Z,9.66
2018-12-01T21:52:59.943Z,9.65
2018-12-01T22:02:59.775Z,9.71
2018-12-01T22:12:59.956Z,9.76
2018-12-01T22:22:59.901Z,9.76
2018-12-01T22:32:59.921Z,9.75
2018-12-01T22:42:59.896Z,9.76
2018-12-01T22:52:59.879Z,9.80
2018-12-01T23:02:59.995Z,9.82
2018-12-01T23:12:59.865Z,9.89
2018-12-01T23:22:59.960Z,9.92
2018-12-01T23:32:59.867Z,9.96
2018-12-01T23:42:59.973Z,9.98
2018-12-01T23:53:00.037Z,9.99
